Time;durP1;ratioP1;P1;durP2;ratioP2;P2;SDS_P1;SDS_P2;PMS_P1;PMS_P2;Temp;Humidity;BMP_temperature;BMP_pressure;BME280_temperature;BME280_humidity;BME280_pressure;Samples;Min_cycle;Max_cycle;Signal;HPM_P1;HPM_P2
2024/01/26 00:00:06;;;;;;;18.20;7.20;;;6.10;99.90;;;;;;5075817;28;20170;-79
2024/01/26 00:02:32;;;;;;;16.87;6.80;;;6.10;99.90;;;;;;5075031;28;20265;-80
2024/01/26 00:04:57;;;;;;;15.20;6.97;;;6.10;99.90;;;;;;5076562;28;20232;-80
2024/01/26 00:07:23;;;;;;;16.83;7.53;;;6.00;99.90;;;;;;5077073;28;20173;-79
2024/01/26 00:09:48;;;;;;;14.20;7.23;;;6.10;99.90;;;;;;5076642;28;20668;-79
2024/01/26 00:12:14;;;;;;;15.37;7.53;;;6.00;99.90;;;;;;5076170;28;20176;-79
2024/01/26 00:14:40;;;;;;;17.30;7.80;;;6.10;99.90;;;;;;5075009;28;20622;-79
2024/01/26 00:17:05;;;;;;;21.97;8.30;;;6.10;99.90;;;;;;5075168;28;20213;-79
2024/01/26 00:19:31;;;;;;;21.03;8.37;;;6.10;99.90;;;;;;5075236;28;20173;-80
2024/01/26 00:21:57;;;;;;;22.07;8.40;;;6.00;99.90;;;;;;5074920;28;20192;-80
2024/01/26 00:24:22;;;;;;;21.23;8.60;;;6.10;99.90;;;;;;5076344;28;20276;-81
2024/01/26 00:26:48;;;;;;;20.17;8.70;;;6.00;99.90;;;;;;5075740;28;20208;-79
2024/01/26 00:29:13;;;;;;;22.93;8.70;;;6.00;99.90;;;;;;5076008;28;20177;-80
2024/01/26 00:31:39;;;;;;;22.67;8.60;;;6.00;99.90;;;;;;5075880;28;20185;-80
2024/01/26 00:34:04;;;;;;;21.37;8.80;;;6.10;99.90;;;;;;5076822;28;20169;-81
2024/01/26 00:36:30;;;;;;;19.43;8.20;;;6.00;99.90;;;;;;5075122;28;20189;-79
2024/01/26 00:38:56;;;;;;;20.00;8.67;;;6.10;99.90;;;;;;5074986;28;20230;-79
2024/01/26 00:41:21;;;;;;;23.57;9.67;;;6.10;99.90;;;;;;5075537;28;20184;-79
2024/01/26 00:43:47;;;;;;;22.10;8.97;;;6.10;99.90;;;;;;5074804;28;20630;-81
2024/01/26 00:46:12;;;;;;;25.70;9.07;;;6.10;99.90;;;;;;5076178;28;20200;-79
2024/01/26 00:48:38;;;;;;;22.60;8.70;;;6.10;99.90;;;;;;5075331;28;20178;-79
2024/01/26 00:51:04;;;;;;;26.67;10.07;;;6.20;99.90;;;;;;5075641;28;20184;-80
2024/01/26 00:53:29;;;;;;;21.90;9.10;;;6.20;99.90;;;;;;5076454;28;20180;-80
2024/01/26 00:55:55;;;;;;;24.07;9.43;;;6.20;99.90;;;;;;5075006;28;20198;-79
2024/01/26 00:58:20;;;;;;;25.20;10.23;;;6.20;99.90;;;;;;5074184;28;20229;-80
2024/01/26 01:00:46;;;;;;;23.00;10.37;;;6.10;99.90;;;;;;5075140;28;20165;-79
2024/01/26 01:03:12;;;;;;;20.90;9.47;;;6.10;99.90;;;;;;5074629;28;20234;-81
2024/01/26 01:05:38;;;;;;;22.77;10.10;;;6.20;99.90;;;;;;5074276;28;20677;-79
2024/01/26 01:08:04;;;;;;;22.73;9.40;;;6.10;99.90;;;;;;5074885;28;20633;-80
2024/01/26 01:10:30;;;;;;;21.43;9.10;;;6.20;99.90;;;;;;5075251;28;20180;-79
2024/01/26 01:12:57;;;;;;;19.70;9.40;;;6.20;99.90;;;;;;5074272;28;20174;-79
2024/01/26 01:15:23;;;;;;;21.73;8.93;;;6.20;99.90;;;;;;5075671;28;20200;-79
2024/01/26 01:17:49;;;;;;;21.03;8.77;;;6.20;99.90;;;;;;5075607;28;20596;-79
2024/01/26 01:20:15;;;;;;;23.20;10.07;;;6.30;99.90;;;;;;5075320;28;20256;-80
2024/01/26 01:22:42;;;;;;;25.80;9.40;;;6.30;99.90;;;;;;5075267;28;20176;-79
2024/01/26 01:25:09;;;;;;;28.57;9.93;;;6.30;99.90;;;;;;5075429;28;20654;-79
2024/01/26 01:27:38;;;;;;;24.10;10.33;;;6.40;99.90;;;;;;5075025;28;20173;-80
2024/01/26 01:30:09;;;;;;;25.73;9.63;;;6.30;99.90;;;;;;5075449;28;20169;-79
2024/01/26 01:32:35;;;;;;;25.07;9.67;;;6.30;99.90;;;;;;5075347;28;20184;-80
2024/01/26 01:35:01;;;;;;;21.37;9.23;;;6.30;99.90;;;;;;5074019;28;20300;-80
2024/01/26 01:37:27;;;;;;;26.53;10.80;;;6.30;99.90;;;;;;5075177;28;20197;-79
2024/01/26 01:39:53;;;;;;;28.70;9.80;;;6.30;99.90;;;;;;5075181;28;20173;-80
2024/01/26 01:42:18;;;;;;;21.97;9.23;;;6.30;99.90;;;;;;5073277;28;20230;-80
2024/01/26 01:44:45;;;;;;;27.57;10.10;;;6.30;99.90;;;;;;5075327;28;20198;-79
2024/01/26 01:47:13;;;;;;;31.77;10.93;;;6.30;99.90;;;;;;5074403;28;20558;-80
2024/01/26 01:49:39;;;;;;;26.37;10.33;;;6.30;99.90;;;;;;5074910;28;20184;-79
2024/01/26 01:52:10;;;;;;;22.07;9.47;;;6.30;99.90;;;;;;5074366;28;20181;-79
2024/01/26 01:54:37;;;;;;;31.20;10.20;;;6.30;99.90;;;;;;5074775;28;20209;-80
2024/01/26 01:57:03;;;;;;;29.87;9.90;;;6.30;99.90;;;;;;5073289;28;20204;-80
2024/01/26 01:59:30;;;;;;;30.17;11.10;;;6.30;99.90;;;;;;5073326;28;20238;-80
2024/01/26 02:01:56;;;;;;;36.50;10.47;;;6.30;99.90;;;;;;5074796;28;20590;-79
2024/01/26 02:04:21;;;;;;;35.30;9.93;;;6.30;99.90;;;;;;5074908;28;20204;-80
2024/01/26 02:06:58;;;;;;;35.47;10.17;;;6.30;99.90;;;;;;5074631;28;20205;-80
2024/01/26 02:09:24;;;;;;;36.00;11.33;;;6.30;99.90;;;;;;5072085;28;20272;-83
2024/01/26 02:11:50;;;;;;;34.67;11.17;;;6.40;99.90;;;;;;5073919;28;20209;-79
2024/01/26 02:14:16;;;;;;;33.40;10.87;;;6.40;99.90;;;;;;5074197;28;20201;-80
2024/01/26 02:16:54;;;;;;;35.40;10.93;;;6.40;99.90;;;;;;5074230;28;20254;-81
2024/01/26 02:19:21;;;;;;;27.27;10.63;;;6.40;99.90;;;;;;5074523;28;20595;-80
2024/01/26 02:21:46;;;;;;;25.63;9.67;;;6.40;99.90;;;;;;5072246;28;20180;-79
2024/01/26 02:24:13;;;;;;;28.67;9.47;;;6.40;99.90;;;;;;5073231;28;20194;-81
2024/01/26 02:26:39;;;;;;;28.37;10.03;;;6.50;99.90;;;;;;5074363;28;20193;-79
2024/01/26 02:29:04;;;;;;;26.00;9.90;;;6.50;99.90;;;;;;5074890;28;20265;-79
2024/01/26 02:31:30;;;;;;;29.80;10.93;;;6.50;99.90;;;;;;5072934;28;20220;-82
2024/01/26 02:33:55;;;;;;;23.47;10.27;;;6.50;99.90;;;;;;5072904;28;20557;-79
2024/01/26 02:36:21;;;;;;;24.87;10.20;;;6.50;99.90;;;;;;5074249;28;20562;-80
2024/01/26 02:38:47;;;;;;;25.00;10.37;;;6.50;99.90;;;;;;5072522;28;20189;-79
2024/01/26 02:41:15;;;;;;;27.03;10.20;;;6.50;99.90;;;;;;5073755;28;20298;-80
2024/01/26 02:43:40;;;;;;;23.33;10.20;;;6.50;99.90;;;;;;5074238;28;20161;-80
2024/01/26 02:46:12;;;;;;;26.47;9.33;;;6.50;99.90;;;;;;5072763;28;20193;-79
2024/01/26 02:48:38;;;;;;;31.63;9.87;;;6.60;99.90;;;;;;5072547;28;20653;-79
2024/01/26 02:51:05;;;;;;;27.20;10.07;;;6.60;99.90;;;;;;5072300;28;20185;-79
2024/01/26 02:53:31;;;;;;;27.13;9.87;;;6.60;99.90;;;;;;5074189;28;20180;-81
2024/01/26 02:55:57;;;;;;;30.27;9.50;;;6.60;99.90;;;;;;5073728;28;20201;-80
2024/01/26 02:58:23;;;;;;;27.00;9.47;;;6.60;99.90;;;;;;5072585;28;20245;-81
2024/01/26 03:00:49;;;;;;;29.90;9.53;;;6.60;99.90;;;;;;5072003;28;20170;-81
2024/01/26 03:03:14;;;;;;;29.80;10.07;;;6.70;99.90;;;;;;5073883;28;20178;-80
2024/01/26 03:05:41;;;;;;;28.77;8.80;;;6.70;99.90;;;;;;5073896;28;20315;-80
2024/01/26 03:08:07;;;;;;;26.67;8.40;;;6.70;99.90;;;;;;5074101;28;20217;-79
2024/01/26 03:10:33;;;;;;;28.40;9.10;;;6.70;99.90;;;;;;5071824;28;20177;-79
2024/01/26 03:12:59;;;;;;;34.57;9.97;;;6.70;99.90;;;;;;5073702;28;20261;-79
2024/01/26 03:15:25;;;;;;;28.23;9.43;;;6.70;99.90;;;;;;5072793;28;20676;-79
2024/01/26 03:17:50;;;;;;;34.27;9.70;;;6.70;99.90;;;;;;5073822;28;20254;-79
2024/01/26 03:20:17;;;;;;;36.23;9.47;;;6.70;99.90;;;;;;5073494;28;20179;-80
2024/01/26 03:22:43;;;;;;;36.37;9.73;;;6.70;99.90;;;;;;5077886;28;20202;-80
2024/01/26 03:25:09;;;;;;;32.00;9.20;;;6.70;99.90;;;;;;5076899;28;20194;-80
2024/01/26 03:27:35;;;;;;;26.27;8.73;;;6.70;99.90;;;;;;5077638;28;20185;-79
2024/01/26 03:30:02;;;;;;;29.37;9.43;;;6.80;99.90;;;;;;5077269;28;20210;-80
2024/01/26 03:32:27;;;;;;;27.27;10.17;;;6.80;99.90;;;;;;5075881;28;20179;-79
2024/01/26 03:34:53;;;;;;;20.07;8.30;;;6.70;99.90;;;;;;5075963;28;20199;-80
2024/01/26 03:37:18;;;;;;;21.97;8.53;;;6.80;99.90;;;;;;5077447;28;20213;-79
2024/01/26 03:39:44;;;;;;;19.43;7.93;;;6.80;99.90;;;;;;5075553;28;20213;-80
2024/01/26 03:42:11;;;;;;;21.40;8.73;;;6.80;99.90;;;;;;5075515;28;20173;-79
2024/01/26 03:44:37;;;;;;;20.77;8.90;;;6.80;99.90;;;;;;5075717;28;20204;-80
2024/01/26 03:47:03;;;;;;;21.63;8.17;;;6.80;99.90;;;;;;5076071;28;20187;-80
2024/01/26 03:49:29;;;;;;;17.20;8.40;;;6.80;99.90;;;;;;5075602;28;20234;-79
2024/01/26 03:51:55;;;;;;;17.70;8.37;;;6.80;99.90;;;;;;5076849;28;20264;-79
2024/01/26 03:54:20;;;;;;;16.03;7.57;;;6.80;99.90;;;;;;5075885;28;20194;-80
2024/01/26 03:56:46;;;;;;;14.93;7.30;;;6.80;99.90;;;;;;5076888;28;20198;-80
2024/01/26 03:59:11;;;;;;;13.90;6.83;;;6.80;99.90;;;;;;5075487;28;20265;-80
2024/01/26 04:01:37;;;;;;;14.40;7.20;;;6.90;99.90;;;;;;5075606;28;20263;-79
2024/01/26 04:04:02;;;;;;;12.87;7.10;;;6.90;99.90;;;;;;5076677;28;20170;-81
2024/01/26 04:06:28;;;;;;;11.53;6.43;;;6.90;99.90;;;;;;5077084;28;20175;-80
2024/01/26 04:08:55;;;;;;;9.13;6.60;;;7.00;99.90;;;;;;5076929;28;20163;-79
2024/01/26 04:11:21;;;;;;;10.17;6.40;;;7.00;99.90;;;;;;5076417;28;20613;-79
2024/01/26 04:13:46;;;;;;;8.87;5.67;;;6.90;99.90;;;;;;5077071;28;20206;-79
2024/01/26 04:16:12;;;;;;;8.10;5.67;;;7.00;99.90;;;;;;5075630;28;20217;-79
2024/01/26 04:18:37;;;;;;;9.13;5.93;;;7.00;99.90;;;;;;5074989;28;20633;-80
2024/01/26 04:21:03;;;;;;;7.30;5.03;;;7.00;99.90;;;;;;5075011;28;20170;-82
2024/01/26 04:23:29;;;;;;;7.13;5.03;;;7.00;99.90;;;;;;5076604;28;20178;-80
2024/01/26 04:25:55;;;;;;;6.80;4.77;;;7.10;99.90;;;;;;5075682;28;20234;-80
2024/01/26 04:28:20;;;;;;;5.97;4.50;;;7.10;99.90;;;;;;5075729;28;20228;-79
2024/01/26 04:30:46;;;;;;;6.37;4.80;;;7.10;99.90;;;;;;5075810;28;20180;-79
2024/01/26 04:33:11;;;;;;;6.07;4.60;;;7.10;99.90;;;;;;5074189;28;20175;-80
2024/01/26 04:35:37;;;;;;;6.70;4.50;;;7.10;99.90;;;;;;5077218;28;20198;-80
2024/01/26 04:38:05;;;;;;;4.77;3.97;;;7.20;99.90;;;;;;5075349;28;20263;-80
2024/01/26 04:40:30;;;;;;;5.90;4.37;;;7.10;99.90;;;;;;5075768;28;20242;-79
2024/01/26 04:42:56;;;;;;;5.17;3.80;;;7.20;99.90;;;;;;5074804;28;20255;-80
2024/01/26 04:45:21;;;;;;;5.77;4.30;;;7.20;99.90;;;;;;5076513;28;20558;-80
2024/01/26 04:47:47;;;;;;;5.77;4.40;;;7.30;99.90;;;;;;5074599;28;20322;-80
2024/01/26 04:50:13;;;;;;;5.93;4.50;;;7.30;99.90;;;;;;5075858;28;20188;-77
2024/01/26 04:52:38;;;;;;;5.67;4.20;;;7.20;99.90;;;;;;5074637;28;20532;-80
2024/01/26 04:55:04;;;;;;;5.83;4.13;;;7.20;99.90;;;;;;5074885;28;20698;-81
2024/01/26 04:57:30;;;;;;;4.93;4.20;;;7.20;99.90;;;;;;5074630;28;20640;-79
2024/01/26 04:59:55;;;;;;;5.17;4.10;;;7.30;99.90;;;;;;5075855;28;20181;-80
2024/01/26 05:02:21;;;;;;;4.83;3.90;;;7.20;99.90;;;;;;5075554;28;20168;-80
2024/01/26 05:04:46;;;;;;;5.67;4.23;;;7.20;99.90;;;;;;5076190;28;20293;-80
2024/01/26 05:07:12;;;;;;;5.73;4.10;;;7.30;99.90;;;;;;5075634;28;20179;-80
2024/01/26 05:09:38;;;;;;;5.30;4.37;;;7.30;99.90;;;;;;5073877;28;20176;-80
2024/01/26 05:12:04;;;;;;;6.27;4.63;;;7.30;99.90;;;;;;5074060;28;20236;-79
2024/01/26 05:14:30;;;;;;;6.83;4.97;;;7.30;99.90;;;;;;5057051;28;20216;-80
2024/01/26 05:16:55;;;;;;;8.13;5.23;;;7.40;99.90;;;;;;5074032;28;20203;-80
2024/01/26 05:19:21;;;;;;;9.07;6.80;;;7.40;99.90;;;;;;5075008;28;20190;-79
2024/01/26 05:21:46;;;;;;;9.43;6.70;;;7.40;99.90;;;;;;5075156;28;20173;-80
2024/01/26 05:24:12;;;;;;;10.73;7.70;;;7.40;99.90;;;;;;5073505;28;20209;-79
2024/01/26 05:26:38;;;;;;;12.13;8.13;;;7.50;99.90;;;;;;5074783;28;20177;-80
2024/01/26 05:29:04;;;;;;;13.43;8.57;;;7.40;99.90;;;;;;5075161;28;20203;-80
2024/01/26 05:31:29;;;;;;;14.97;9.30;;;7.40;99.90;;;;;;5072859;28;20224;-80
2024/01/26 05:33:55;;;;;;;16.83;10.40;;;7.40;99.90;;;;;;5075362;28;20268;-80
2024/01/26 05:36:20;;;;;;;16.83;10.27;;;7.50;99.90;;;;;;5075088;28;20183;-80
2024/01/26 05:38:46;;;;;;;17.80;9.53;;;7.50;99.90;;;;;;5073247;28;20238;-80
2024/01/26 05:41:12;;;;;;;17.27;10.33;;;7.50;99.90;;;;;;5074190;28;20208;-80
2024/01/26 05:43:39;;;;;;;16.63;10.37;;;7.50;99.90;;;;;;5074592;28;20182;-81
2024/01/26 05:46:05;;;;;;;16.57;10.47;;;7.50;99.90;;;;;;5073730;28;20194;-80
2024/01/26 05:48:31;;;;;;;16.10;10.17;;;7.50;99.90;;;;;;5074546;28;20193;-80
2024/01/26 05:50:56;;;;;;;16.87;10.03;;;7.50;99.90;;;;;;5074123;28;20189;-80
2024/01/26 05:53:22;;;;;;;17.73;11.00;;;7.50;99.90;;;;;;5073427;28;20178;-80
2024/01/26 05:55:47;;;;;;;17.50;9.93;;;7.50;99.90;;;;;;5074364;28;20191;-80
2024/01/26 05:58:15;;;;;;;15.67;9.53;;;7.50;99.90;;;;;;5074528;28;20196;-79
2024/01/26 06:00:41;;;;;;;15.33;9.43;;;7.50;99.90;;;;;;5073775;28;20169;-80
2024/01/26 06:03:06;;;;;;;15.80;9.20;;;7.60;99.90;;;;;;5075129;28;20706;-79
2024/01/26 06:05:32;;;;;;;15.33;9.10;;;7.60;99.90;;;;;;5074240;28;20207;-79
2024/01/26 06:07:59;;;;;;;13.93;9.53;;;7.60;99.90;;;;;;5074159;28;20172;-80
2024/01/26 06:10:24;;;;;;;12.20;8.60;;;7.60;99.90;;;;;;5073808;28;20176;-80
2024/01/26 06:12:50;;;;;;;14.23;8.57;;;7.60;99.90;;;;;;5073644;28;20184;-81
2024/01/26 06:15:16;;;;;;;15.03;9.40;;;7.70;99.90;;;;;;5072964;28;20191;-79
2024/01/26 06:17:42;;;;;;;14.37;9.50;;;7.70;99.90;;;;;;5074882;28;20204;-79
2024/01/26 06:20:08;;;;;;;14.50;9.73;;;7.70;99.90;;;;;;5074273;28;20255;-80
2024/01/26 06:22:33;;;;;;;15.97;9.70;;;7.70;99.90;;;;;;5073721;28;20199;-80
2024/01/26 06:24:59;;;;;;;14.70;9.77;;;7.70;99.90;;;;;;5074281;28;20188;-79
2024/01/26 06:27:25;;;;;;;13.80;9.20;;;7.70;99.90;;;;;;5073279;28;20184;-81
2024/01/26 06:29:50;;;;;;;16.30;9.23;;;7.70;99.90;;;;;;5073236;28;20187;-79
2024/01/26 06:32:18;;;;;;;15.57;9.83;;;7.70;99.90;;;;;;5072606;28;20653;-79
2024/01/26 06:34:45;;;;;;;15.47;10.30;;;7.80;99.90;;;;;;5072772;28;20618;-79
2024/01/26 06:37:11;;;;;;;14.80;10.07;;;7.70;99.90;;;;;;5074033;28;20325;-80
2024/01/26 06:39:37;;;;;;;14.73;9.40;;;7.70;99.90;;;;;;5074458;28;20207;-79
2024/01/26 06:42:03;;;;;;;17.43;10.50;;;7.70;99.90;;;;;;5073834;28;20207;-79
2024/01/26 06:44:28;;;;;;;15.33;9.83;;;7.80;99.90;;;;;;5072685;28;20187;-79
2024/01/26 06:46:54;;;;;;;17.47;10.80;;;7.80;99.90;;;;;;5072952;28;20179;-79
2024/01/26 06:49:19;;;;;;;18.13;11.00;;;7.80;99.90;;;;;;5072636;28;20269;-79
2024/01/26 06:51:45;;;;;;;18.03;11.10;;;7.80;99.90;;;;;;5073500;28;20190;-77
2024/01/26 06:54:10;;;;;;;17.57;11.20;;;7.80;99.90;;;;;;5072015;28;20185;-81
2024/01/26 06:56:36;;;;;;;17.50;11.10;;;7.80;99.90;;;;;;5077422;28;20243;-82
2024/01/26 06:59:02;;;;;;;15.33;10.43;;;7.80;99.90;;;;;;5079011;28;20708;-82
2024/01/26 07:01:27;;;;;;;18.37;11.37;;;7.80;99.90;;;;;;5078621;28;20283;-82
2024/01/26 07:03:53;;;;;;;17.37;11.27;;;7.90;99.90;;;;;;5079102;28;20180;-82
2024/01/26 07:06:19;;;;;;;16.67;11.10;;;7.90;99.90;;;;;;5077537;28;20191;-83
2024/01/26 07:08:45;;;;;;;19.30;11.50;;;7.90;99.90;;;;;;5077669;28;20191;-82
2024/01/26 07:11:11;;;;;;;15.90;10.87;;;7.80;99.90;;;;;;5078209;28;20560;-83
2024/01/26 07:13:36;;;;;;;15.93;10.73;;;7.90;99.90;;;;;;5078663;28;20254;-81
2024/01/26 07:16:02;;;;;;;14.87;9.97;;;7.80;99.90;;;;;;5077813;28;20300;-81
2024/01/26 07:18:27;;;;;;;15.57;10.47;;;7.80;99.90;;;;;;5079520;28;20207;-81
2024/01/26 07:20:53;;;;;;;16.73;10.33;;;7.90;99.90;;;;;;5078650;28;20180;-81
2024/01/26 07:23:18;;;;;;;16.80;10.27;;;7.90;99.90;;;;;;5079257;28;20260;-82
2024/01/26 07:25:44;;;;;;;15.47;10.30;;;7.90;99.90;;;;;;5079323;28;20221;-82
2024/01/26 07:28:10;;;;;;;15.07;9.53;;;7.80;99.90;;;;;;5077864;28;20280;-81
2024/01/26 07:30:35;;;;;;;15.20;9.90;;;7.90;99.90;;;;;;5077370;28;20186;-83
2024/01/26 07:33:01;;;;;;;12.30;8.80;;;7.90;99.90;;;;;;5078807;28;20214;-81
2024/01/26 07:35:26;;;;;;;15.33;10.57;;;7.90;99.90;;;;;;5077414;28;20262;-82
2024/01/26 07:37:52;;;;;;;14.67;9.33;;;7.90;99.90;;;;;;5078614;28;20204;-81
2024/01/26 07:40:17;;;;;;;13.57;9.10;;;7.90;99.90;;;;;;5078357;28;20196;-80
2024/01/26 07:42:43;;;;;;;12.03;8.40;;;8.00;99.90;;;;;;5078714;28;20174;-81
2024/01/26 07:45:09;;;;;;;13.17;8.70;;;8.00;99.90;;;;;;5078318;28;20236;-81
2024/01/26 07:47:35;;;;;;;13.17;8.67;;;7.90;99.90;;;;;;5078509;28;20179;-82
2024/01/26 07:50:02;;;;;;;13.10;9.10;;;7.90;99.90;;;;;;5078257;28;20267;-81
2024/01/26 07:52:28;;;;;;;13.70;9.40;;;7.90;99.90;;;;;;5076774;28;20172;-81
2024/01/26 07:54:54;;;;;;;12.63;8.53;;;7.90;99.90;;;;;;5076853;28;20329;-81
2024/01/26 07:57:21;;;;;;;13.17;8.67;;;8.00;99.90;;;;;;5076786;28;20204;-81
2024/01/26 07:59:48;;;;;;;11.30;8.23;;;8.00;99.90;;;;;;5078191;28;20551;-81
2024/01/26 08:02:14;;;;;;;13.00;8.63;;;8.00;99.90;;;;;;5077802;28;20171;-81
2024/01/26 08:04:39;;;;;;;11.70;8.50;;;8.00;99.90;;;;;;5078094;28;20230;-82
2024/01/26 08:07:05;;;;;;;10.13;7.80;;;8.00;99.90;;;;;;5076090;28;20182;-81
2024/01/26 08:09:30;;;;;;;12.20;8.20;;;8.00;99.90;;;;;;5074682;28;20187;-81
2024/01/26 08:11:56;;;;;;;10.37;7.67;;;8.00;99.90;;;;;;5073315;28;20198;-80
2024/01/26 08:14:22;;;;;;;12.53;8.33;;;8.00;99.90;;;;;;5073571;28;20693;-81
2024/01/26 08:16:47;;;;;;;11.23;8.60;;;8.00;99.90;;;;;;5074852;28;20173;-81
2024/01/26 08:19:13;;;;;;;10.73;8.30;;;8.00;99.90;;;;;;5073592;28;20173;-82
2024/01/26 08:21:38;;;;;;;14.03;8.20;;;8.00;99.90;;;;;;5074476;28;20173;-81
2024/01/26 08:24:04;;;;;;;9.63;7.23;;;8.00;99.90;;;;;;5074015;28;20172;-84
2024/01/26 08:26:30;;;;;;;11.10;7.63;;;8.00;99.90;;;;;;5073179;28;20172;-82
2024/01/26 08:28:55;;;;;;;11.67;7.53;;;8.00;99.90;;;;;;5073618;28;20173;-80
2024/01/26 08:31:21;;;;;;;9.60;7.47;;;8.00;99.90;;;;;;5073030;28;20267;-80
2024/01/26 08:33:47;;;;;;;9.93;7.37;;;8.10;99.90;;;;;;5073148;28;20253;-82
2024/01/26 08:36:13;;;;;;;11.37;7.90;;;8.10;99.90;;;;;;5073133;28;20589;-81
2024/01/26 08:38:38;;;;;;;9.53;7.37;;;8.10;99.90;;;;;;5073075;28;20235;-82
2024/01/26 08:41:07;;;;;;;10.80;7.50;;;8.10;99.90;;;;;;5073821;28;20269;-83
2024/01/26 08:43:33;;;;;;;10.97;7.80;;;8.10;99.90;;;;;;5074709;28;20258;-82
2024/01/26 08:45:59;;;;;;;9.67;7.63;;;8.10;99.90;;;;;;5073498;28;20207;-80
2024/01/26 08:48:25;;;;;;;9.37;7.50;;;8.10;99.90;;;;;;5074469;28;20173;-83
2024/01/26 08:50:51;;;;;;;10.60;7.60;;;8.20;99.90;;;;;;5073877;28;20181;-84
2024/01/26 08:53:16;;;;;;;9.80;7.13;;;8.20;99.90;;;;;;5074827;28;20184;-82
2024/01/26 08:55:42;;;;;;;8.73;6.57;;;8.20;99.90;;;;;;5073091;28;20688;-82
2024/01/26 08:58:08;;;;;;;9.90;6.70;;;8.20;99.90;;;;;;5074243;28;20208;-81
2024/01/26 09:00:34;;;;;;;8.00;6.30;;;8.20;99.90;;;;;;5072630;28;20288;-82
2024/01/26 09:03:00;;;;;;;7.00;5.80;;;8.20;99.90;;;;;;5072955;28;20198;-82
2024/01/26 09:05:26;;;;;;;6.87;5.87;;;8.30;99.90;;;;;;5073882;28;20215;-80
2024/01/26 09:07:51;;;;;;;5.70;5.10;;;8.30;99.90;;;;;;5073025;28;20184;-84
2024/01/26 09:10:19;;;;;;;6.00;5.30;;;8.30;99.90;;;;;;5073798;28;20671;-84
2024/01/26 09:12:44;;;;;;;7.13;5.63;;;8.40;99.90;;;;;;5074212;28;20181;-81
2024/01/26 09:15:10;;;;;;;8.40;5.63;;;8.40;99.90;;;;;;5074418;28;20200;-81
2024/01/26 09:17:36;;;;;;;6.60;5.37;;;8.40;99.90;;;;;;5073856;28;20685;-81
2024/01/26 09:20:02;;;;;;;6.00;4.87;;;8.40;99.90;;;;;;5072972;28;20175;-82
2024/01/26 09:22:28;;;;;;;5.90;5.20;;;8.40;99.90;;;;;;5073214;28;20272;-82
2024/01/26 09:24:54;;;;;;;5.43;4.63;;;8.40;99.90;;;;;;5072128;28;20279;-82
2024/01/26 09:27:21;;;;;;;5.80;4.80;;;8.40;99.90;;;;;;5074066;28;20263;-81
2024/01/26 09:29:47;;;;;;;5.50;4.90;;;8.50;99.90;;;;;;5073067;28;20225;-82
2024/01/26 09:32:12;;;;;;;5.83;4.90;;;8.50;99.90;;;;;;5073282;28;20180;-81
2024/01/26 09:34:38;;;;;;;5.13;4.23;;;8.50;99.90;;;;;;5073311;28;20206;-81
2024/01/26 09:37:04;;;;;;;5.23;4.10;;;8.50;99.90;;;;;;5072190;28;20665;-81
2024/01/26 09:39:29;;;;;;;4.13;3.70;;;8.60;99.90;;;;;;5073141;28;20176;-81
2024/01/26 09:41:55;;;;;;;4.40;3.53;;;8.60;99.90;;;;;;5073213;28;20252;-81
2024/01/26 09:44:21;;;;;;;4.20;3.37;;;8.60;99.90;;;;;;5073132;28;20270;-81
2024/01/26 09:46:50;;;;;;;4.43;3.93;;;8.60;99.90;;;;;;5072089;28;20544;-81
2024/01/26 09:49:16;;;;;;;4.10;3.70;;;8.70;99.90;;;;;;5071757;28;20262;-81
2024/01/26 09:51:41;;;;;;;5.03;3.80;;;8.70;99.90;;;;;;5072589;28;20184;-81
2024/01/26 09:54:08;;;;;;;4.40;3.77;;;8.60;99.90;;;;;;5072860;28;20169;-81
2024/01/26 09:56:37;;;;;;;4.37;3.40;;;8.60;99.90;;;;;;5071800;28;20526;-82
2024/01/26 09:59:03;;;;;;;4.30;3.90;;;8.60;99.90;;;;;;5072697;28;20264;-82
2024/01/26 10:01:33;;;;;;;4.10;3.60;;;8.60;99.90;;;;;;5072347;28;20169;-81
2024/01/26 10:04:00;;;;;;;4.27;3.80;;;8.60;99.90;;;;;;5072734;28;20693;-81
2024/01/26 10:06:26;;;;;;;4.47;3.50;;;8.60;99.90;;;;;;5072797;28;20642;-81
2024/01/26 10:08:52;;;;;;;3.90;3.47;;;8.60;99.90;;;;;;5071424;28;20295;-81
2024/01/26 10:11:17;;;;;;;4.37;3.33;;;8.60;99.90;;;;;;5070878;28;20270;-81
2024/01/26 10:13:43;;;;;;;4.40;3.27;;;8.60;99.90;;;;;;5072757;28;20180;-81
2024/01/26 10:16:11;;;;;;;3.93;2.90;;;8.60;99.90;;;;;;5072836;28;20648;-82
2024/01/26 10:18:45;;;;;;;4.20;3.60;;;8.60;99.90;;;;;;5071220;28;20289;-82
2024/01/26 10:21:12;;;;;;;3.73;3.10;;;8.60;99.90;;;;;;5070587;28;20173;-81
2024/01/26 10:23:37;;;;;;;3.40;3.10;;;8.60;99.90;;;;;;5072655;28;20238;-82
2024/01/26 10:26:03;;;;;;;3.40;3.10;;;8.60;99.90;;;;;;5072615;28;20197;-81
2024/01/26 10:28:29;;;;;;;4.40;3.10;;;8.60;99.90;;;;;;5072683;28;20180;-81
2024/01/26 10:30:54;;;;;;;3.20;2.80;;;8.60;99.90;;;;;;5070895;28;20187;-81
2024/01/26 10:33:22;;;;;;;4.40;3.03;;;8.60;99.90;;;;;;5072669;28;20270;-82
2024/01/26 10:35:50;;;;;;;3.00;2.70;;;8.70;99.90;;;;;;5072277;28;20200;-81
2024/01/26 10:38:16;;;;;;;3.40;3.07;;;8.70;99.90;;;;;;5071083;28;20232;-81
2024/01/26 10:40:44;;;;;;;3.23;2.87;;;8.70;99.90;;;;;;5071727;28;20172;-81
2024/01/26 10:43:11;;;;;;;3.50;2.80;;;8.70;99.90;;;;;;5072245;28;20169;-85
2024/01/26 10:45:37;;;;;;;2.90;2.57;;;8.60;99.90;;;;;;5070918;28;20673;-79
2024/01/26 10:48:05;;;;;;;3.33;2.77;;;8.70;99.90;;;;;;5071433;28;20636;-81
2024/01/26 10:50:31;;;;;;;3.33;2.90;;;8.70;99.90;;;;;;5071871;28;20181;-81
2024/01/26 10:52:58;;;;;;;3.47;2.93;;;8.60;99.90;;;;;;5071305;28;20204;-82
2024/01/26 10:55:25;;;;;;;6.07;2.63;;;8.60;99.90;;;;;;5070921;28;20270;-81
2024/01/26 10:57:51;;;;;;;3.50;2.57;;;8.60;99.90;;;;;;5067253;28;20238;-81
2024/01/26 11:00:17;;;;;;;3.40;2.40;;;8.60;99.90;;;;;;5071978;28;20184;-81
2024/01/26 11:02:43;;;;;;;2.90;2.60;;;8.60;99.90;;;;;;5071653;28;20184;-80
2024/01/26 11:05:11;;;;;;;2.30;2.10;;;8.60;99.90;;;;;;5108805;22;20364;-84
2024/01/26 11:07:38;;;;;;;3.77;2.40;;;8.60;99.90;;;;;;5028027;28;20182;-84
2024/01/26 11:10:06;;;;;;;3.53;2.10;;;8.50;99.90;;;;;;5029780;28;20205;-82
2024/01/26 11:12:34;;;;;;;3.60;2.13;;;8.50;99.90;;;;;;5030320;28;20178;-84
2024/01/26 11:15:08;;;;;;;3.47;2.10;;;8.60;99.90;;;;;;5030146;28;20197;-80
2024/01/26 11:17:59;;;;;;;2.10;1.90;;;8.60;99.90;;;;;;5031547;28;20693;-82
2024/01/26 11:20:26;;;;;;;1.97;1.70;;;8.60;99.90;;;;;;5031694;28;20646;-82
2024/01/26 11:23:13;;;;;;;2.77;2.00;;;8.70;99.90;;;;;;5031880;28;20171;-81
2024/01/26 11:25:44;;;;;;;2.07;1.83;;;8.80;99.90;;;;;;5034200;28;20300;-81
2024/01/26 11:28:11;;;;;;;1.90;1.70;;;8.90;99.90;;;;;;5035137;28;20175;-81
2024/01/26 11:30:39;;;;;;;2.10;1.50;;;9.10;99.90;;;;;;5034103;28;20166;-82
2024/01/26 11:33:16;;;;;;;1.97;1.53;;;9.10;99.90;;;;;;5030925;28;20171;-82
2024/01/26 11:35:42;;;;;;;2.37;1.80;;;9.00;99.90;;;;;;5030634;28;20697;-81
2024/01/26 11:38:08;;;;;;;1.60;1.50;;;8.80;99.90;;;;;;5031828;28;20209;-81
2024/01/26 11:40:35;;;;;;;2.00;1.60;;;8.80;99.90;;;;;;5031491;28;20178;-80
2024/01/26 11:43:01;;;;;;;1.90;1.60;;;8.70;99.90;;;;;;5036124;28;20170;-80
2024/01/26 11:45:32;;;;;;;2.20;1.70;;;8.70;99.90;;;;;;5034532;28;20597;-84
2024/01/26 11:47:58;;;;;;;2.70;1.73;;;8.80;99.90;;;;;;5035447;28;20170;-86
2024/01/26 11:50:23;;;;;;;2.03;1.83;;;8.90;99.90;;;;;;5035085;28;20180;-84
2024/01/26 11:52:49;;;;;;;2.13;1.53;;;8.80;99.90;;;;;;5035342;28;20261;-84
2024/01/26 11:55:15;;;;;;;1.87;1.67;;;8.70;99.90;;;;;;5033758;28;20236;-84
2024/01/26 11:57:41;;;;;;;2.90;1.70;;;8.70;99.90;;;;;;5034011;28;20205;-84
2024/01/26 12:00:09;;;;;;;2.13;1.60;;;8.70;99.90;;;;;;5031700;28;20172;-84
2024/01/26 12:02:35;;;;;;;1.60;1.50;;;8.70;99.90;;;;;;5015904;28;20199;-84
2024/01/26 12:05:01;;;;;;;2.03;1.60;;;8.60;99.90;;;;;;5014879;28;20660;-84
2024/01/26 12:07:27;;;;;;;1.93;1.60;;;8.70;99.90;;;;;;5014135;28;20179;-84
2024/01/26 12:09:52;;;;;;;1.70;1.60;;;8.60;99.90;;;;;;5013916;28;20178;-84
2024/01/26 12:12:19;;;;;;;1.70;1.60;;;8.60;99.90;;;;;;5014858;28;20189;-84
2024/01/26 12:14:44;;;;;;;2.00;1.77;;;8.70;99.90;;;;;;5013685;28;20574;-84
2024/01/26 12:17:10;;;;;;;2.60;1.83;;;8.70;99.90;;;;;;5013639;28;20199;-84
2024/01/26 12:19:38;;;;;;;2.33;2.10;;;8.70;99.90;;;;;;5014833;28;20164;-84
2024/01/26 12:22:07;;;;;;;2.47;2.27;;;8.70;99.90;;;;;;5029624;28;20174;-84
2024/01/26 12:24:36;;;;;;;2.47;2.20;;;8.70;99.90;;;;;;5033415;28;20174;-84
2024/01/26 12:27:02;;;;;;;2.50;2.20;;;8.80;99.90;;;;;;5034356;28;20655;-84
2024/01/26 12:29:29;;;;;;;2.40;2.20;;;8.80;99.90;;;;;;5034329;28;20660;-84
2024/01/26 12:32:05;;;;;;;3.07;2.73;;;8.90;99.90;;;;;;5033932;28;20162;-84
2024/01/26 12:34:31;;;;;;;3.73;3.00;;;8.90;99.90;;;;;;5034626;28;20170;-86
2024/01/26 12:37:00;;;;;;;2.80;2.50;;;8.80;99.90;;;;;;5024631;28;20182;-84
2024/01/26 12:39:26;;;;;;;3.50;3.10;;;8.90;99.90;;;;;;5013303;28;20183;-82
2024/01/26 12:41:53;;;;;;;3.47;3.10;;;8.90;99.90;;;;;;5012977;28;20185;-84
2024/01/26 12:44:19;;;;;;;3.00;2.70;;;8.90;99.90;;;;;;5014427;28;20193;-85